sensor_id;sensor_type;location;lat;lon;timestamp;P1;durP1;ratioP1;P2;durP2;ratioP2
64500;SDS011;50874;24.150;-110.320;2022-09-30T00:00:20;8.23;;;2.72;;
64500;SDS011;50874;24.150;-110.320;2022-09-30T00:02:47;4.00;;;2.67;;
64500;SDS011;50874;24.150;-110.320;2022-09-30T00:05:14;2.60;;;2.28;;
64500;SDS011;50874;24.150;-110.320;2022-09-30T00:07:40;3.63;;;2.50;;
64500;SDS011;50874;24.150;-110.320;2022-09-30T00:10:07;7.53;;;2.78;;
64500;SDS011;50874;24.150;-110.320;2022-09-30T00:12:33;4.47;;;2.67;;
64500;SDS011;50874;24.150;-110.320;2022-09-30T00:15:00;8.77;;;2.88;;
64500;SDS011;50874;24.150;-110.320;2022-09-30T00:17:27;8.52;;;2.33;;
64500;SDS011;50874;24.150;-110.320;2022-09-30T00:19:53;5.70;;;3.20;;
64500;SDS011;50874;24.150;-110.320;2022-09-30T00:22:19;3.15;;;2.67;;
64500;SDS011;50874;24.150;-110.320;2022-09-30T00:24:46;10.45;;;3.20;;
64500;SDS011;50874;24.150;-110.320;2022-09-30T00:27:12;5.35;;;2.53;;
64500;SDS011;50874;24.150;-110.320;2022-09-30T00:29:43;6.78;;;2.72;;
64500;SDS011;50874;24.150;-110.320;2022-09-30T00:32:10;3.75;;;2.65;;
64500;SDS011;50874;24.150;-110.320;2022-09-30T00:34:36;3.53;;;2.50;;
64500;SDS011;50874;24.150;-110.320;2022-09-30T00:37:03;6.15;;;2.60;;
64500;SDS011;50874;24.150;-110.320;2022-09-30T00:39:29;6.53;;;2.58;;
64500;SDS011;50874;24.150;-110.320;2022-09-30T00:41:57;3.95;;;2.50;;
64500;SDS011;50874;24.150;-110.320;2022-09-30T00:47:29;5.40;;;2.75;;
64500;SDS011;50874;24.150;-110.320;2022-09-30T00:50:48;4.07;;;2.67;;
64500;SDS011;50874;24.150;-110.320;2022-09-30T00:55:50;5.57;;;2.90;;
64500;SDS011;50874;24.150;-110.320;2022-09-30T01:00:58;4.82;;;2.70;;
64500;SDS011;50874;24.150;-110.320;2022-09-30T01:03:28;5.05;;;2.70;;
64500;SDS011;50874;24.150;-110.320;2022-09-30T01:06:00;2.75;;;2.30;;
64500;SDS011;50874;24.150;-110.320;2022-09-30T01:08:27;3.67;;;2.50;;
64500;SDS011;50874;24.150;-110.320;2022-09-30T01:10:56;3.10;;;2.30;;
64500;SDS011;50874;24.150;-110.320;2022-09-30T01:13:22;6.03;;;2.80;;
64500;SDS011;50874;24.150;-110.320;2022-09-30T01:18:54;7.15;;;3.08;;
64500;SDS011;50874;24.150;-110.320;2022-09-30T01:21:29;5.10;;;2.80;;
64500;SDS011;50874;24.150;-110.320;2022-09-30T01:42:06;5.03;;;2.67;;
64500;SDS011;50874;24.150;-110.320;2022-09-30T01:44:12;3.83;;;2.50;;
64500;SDS011;50874;24.150;-110.320;2022-09-30T01:51:53;4.45;;;2.88;;
64500;SDS011;50874;24.150;-110.320;2022-09-30T01:57:01;5.25;;;2.67;;
64500;SDS011;50874;24.150;-110.320;2022-09-30T01:59:52;8.10;;;3.10;;
64500;SDS011;50874;24.150;-110.320;2022-09-30T02:02:27;11.23;;;2.65;;
64500;SDS011;50874;24.150;-110.320;2022-09-30T02:05:05;10.48;;;2.88;;
64500;SDS011;50874;24.150;-110.320;2022-09-30T02:08:06;5.55;;;2.83;;
64500;SDS011;50874;24.150;-110.320;2022-09-30T02:11:12;6.53;;;2.90;;
64500;SDS011;50874;24.150;-110.320;2022-09-30T02:13:56;10.10;;;2.80;;
64500;SDS011;50874;24.150;-110.320;2022-09-30T02:19:16;8.30;;;3.42;;
64500;SDS011;50874;24.150;-110.320;2022-09-30T02:21:59;17.73;;;4.25;;
64500;SDS011;50874;24.150;-110.320;2022-09-30T02:24:33;4.88;;;3.22;;
64500;SDS011;50874;24.150;-110.320;2022-09-30T02:27:01;13.68;;;4.28;;
64500;SDS011;50874;24.150;-110.320;2022-09-30T02:29:36;7.63;;;3.38;;
64500;SDS011;50874;24.150;-110.320;2022-09-30T02:32:12;6.93;;;4.75;;
64500;SDS011;50874;24.150;-110.320;2022-09-30T02:34:47;10.60;;;3.65;;
64500;SDS011;50874;24.150;-110.320;2022-09-30T02:37:19;11.27;;;4.07;;
64500;SDS011;50874;24.150;-110.320;2022-09-30T02:43:03;7.50;;;3.78;;
64500;SDS011;50874;24.150;-110.320;2022-09-30T02:45:34;8.27;;;3.85;;
64500;SDS011;50874;24.150;-110.320;2022-09-30T02:48:24;8.02;;;3.63;;
64500;SDS011;50874;24.150;-110.320;2022-09-30T02:51:02;9.80;;;3.63;;
64500;SDS011;50874;24.150;-110.320;2022-09-30T02:53:34;10.60;;;3.75;;
64500;SDS011;50874;24.150;-110.320;2022-09-30T02:56:37;9.63;;;4.03;;
64500;SDS011;50874;24.150;-110.320;2022-09-30T02:59:11;15.75;;;4.05;;
64500;SDS011;50874;24.150;-110.320;2022-09-30T03:01:38;14.50;;;4.00;;
64500;SDS011;50874;24.150;-110.320;2022-09-30T03:04:09;12.45;;;4.63;;
64500;SDS011;50874;24.150;-110.320;2022-09-30T03:06:39;9.52;;;4.47;;
64500;SDS011;50874;24.150;-110.320;2022-09-30T03:09:05;9.95;;;4.15;;
64500;SDS011;50874;24.150;-110.320;2022-09-30T03:11:33;12.68;;;4.95;;
64500;SDS011;50874;24.150;-110.320;2022-09-30T03:19:26;10.27;;;4.67;;
64500;SDS011;50874;24.150;-110.320;2022-09-30T03:22:26;11.65;;;3.72;;
64500;SDS011;50874;24.150;-110.320;2022-09-30T03:30:18;8.93;;;3.83;;
64500;SDS011;50874;24.150;-110.320;2022-09-30T03:46:07;12.80;;;3.90;;
64500;SDS011;50874;24.150;-110.320;2022-09-30T03:48:46;13.15;;;4.25;;
64500;SDS011;50874;24.150;-110.320;2022-09-30T03:51:15;5.68;;;3.85;;
64500;SDS011;50874;24.150;-110.320;2022-09-30T03:53:42;6.18;;;3.97;;
64500;SDS011;50874;24.150;-110.320;2022-09-30T03:56:11;10.07;;;4.28;;
64500;SDS011;50874;24.150;-110.320;2022-09-30T03:58:40;11.77;;;4.88;;
64500;SDS011;50874;24.150;-110.320;2022-09-30T04:01:10;12.18;;;3.80;;
64500;SDS011;50874;24.150;-110.320;2022-09-30T04:03:48;7.38;;;4.65;;
64500;SDS011;50874;24.150;-110.320;2022-09-30T04:06:16;7.10;;;4.22;;
64500;SDS011;50874;24.150;-110.320;2022-09-30T04:08:45;8.15;;;4.22;;
64500;SDS011;50874;24.150;-110.320;2022-09-30T04:11:11;11.60;;;4.53;;
64500;SDS011;50874;24.150;-110.320;2022-09-30T04:13:38;13.48;;;4.60;;
64500;SDS011;50874;24.150;-110.320;2022-09-30T04:16:05;8.02;;;3.88;;
64500;SDS011;50874;24.150;-110.320;2022-09-30T04:18:35;8.60;;;4.05;;
64500;SDS011;50874;24.150;-110.320;2022-09-30T04:21:06;6.28;;;3.58;;
64500;SDS011;50874;24.150;-110.320;2022-09-30T04:23:34;11.35;;;3.90;;
64500;SDS011;50874;24.150;-110.320;2022-09-30T04:26:02;11.00;;;3.65;;
64500;SDS011;50874;24.150;-110.320;2022-09-30T04:28:30;11.70;;;3.90;;
64500;SDS011;50874;24.150;-110.320;2022-09-30T04:31:03;11.30;;;4.07;;
64500;SDS011;50874;24.150;-110.320;2022-09-30T04:33:31;13.13;;;4.57;;
64500;SDS011;50874;24.150;-110.320;2022-09-30T04:35:58;7.72;;;3.42;;
64500;SDS011;50874;24.150;-110.320;2022-09-30T04:38:25;7.75;;;3.97;;
64500;SDS011;50874;24.150;-110.320;2022-09-30T04:40:52;12.75;;;3.50;;
64500;SDS011;50874;24.150;-110.320;2022-09-30T04:43:20;11.65;;;4.20;;
64500;SDS011;50874;24.150;-110.320;2022-09-30T04:45:48;8.45;;;3.40;;
64500;SDS011;50874;24.150;-110.320;2022-09-30T04:48:16;9.68;;;3.75;;
64500;SDS011;50874;24.150;-110.320;2022-09-30T04:50:43;7.38;;;3.55;;
64500;SDS011;50874;24.150;-110.320;2022-09-30T04:53:12;10.40;;;3.85;;
64500;SDS011;50874;24.150;-110.320;2022-09-30T04:55:40;10.98;;;4.05;;
64500;SDS011;50874;24.150;-110.320;2022-09-30T04:58:06;7.70;;;3.80;;
64500;SDS011;50874;24.150;-110.320;2022-09-30T05:00:33;10.48;;;3.78;;
64500;SDS011;50874;24.150;-110.320;2022-09-30T05:03:00;17.55;;;5.45;;
64500;SDS011;50874;24.150;-110.320;2022-09-30T05:05:27;9.95;;;4.50;;
64500;SDS011;50874;24.150;-110.320;2022-09-30T05:08:00;9.38;;;3.85;;
64500;SDS011;50874;24.150;-110.320;2022-09-30T05:10:28;7.18;;;3.97;;
64500;SDS011;50874;24.150;-110.320;2022-09-30T05:12:55;9.40;;;4.10;;
64500;SDS011;50874;24.150;-110.320;2022-09-30T05:15:25;7.68;;;3.75;;
64500;SDS011;50874;24.150;-110.320;2022-09-30T05:17:52;5.50;;;3.50;;
64500;SDS011;50874;24.150;-110.320;2022-09-30T05:20:18;17.33;;;4.30;;
64500;SDS011;50874;24.150;-110.320;2022-09-30T05:22:46;10.52;;;4.28;;
64500;SDS011;50874;24.150;-110.320;2022-09-30T05:25:12;13.88;;;4.18;;
64500;SDS011;50874;24.150;-110.320;2022-09-30T05:27:39;17.90;;;4.82;;
64500;SDS011;50874;24.150;-110.320;2022-09-30T05:30:05;10.50;;;4.22;;
64500;SDS011;50874;24.150;-110.320;2022-09-30T05:32:32;11.02;;;4.70;;
64500;SDS011;50874;24.150;-110.320;2022-09-30T05:34:58;11.32;;;4.82;;
64500;SDS011;50874;24.150;-110.320;2022-09-30T05:37:27;11.50;;;4.72;;
64500;SDS011;50874;24.150;-110.320;2022-09-30T05:39:54;10.98;;;3.97;;
64500;SDS011;50874;24.150;-110.320;2022-09-30T05:42:21;13.52;;;4.10;;
64500;SDS011;50874;24.150;-110.320;2022-09-30T05:44:47;14.90;;;4.28;;
64500;SDS011;50874;24.150;-110.320;2022-09-30T05:47:14;15.95;;;5.43;;
64500;SDS011;50874;24.150;-110.320;2022-09-30T05:49:40;11.48;;;4.35;;
64500;SDS011;50874;24.150;-110.320;2022-09-30T05:52:07;14.45;;;4.72;;
64500;SDS011;50874;24.150;-110.320;2022-09-30T05:54:33;12.70;;;4.38;;
64500;SDS011;50874;24.150;-110.320;2022-09-30T05:57:00;9.32;;;3.92;;
64500;SDS011;50874;24.150;-110.320;2022-09-30T05:59:26;6.70;;;3.55;;
64500;SDS011;50874;24.150;-110.320;2022-09-30T06:01:53;11.65;;;3.80;;
64500;SDS011;50874;24.150;-110.320;2022-09-30T06:04:19;10.27;;;3.63;;
64500;SDS011;50874;24.150;-110.320;2022-09-30T06:06:46;8.60;;;3.72;;
64500;SDS011;50874;24.150;-110.320;2022-09-30T06:09:13;9.88;;;3.97;;
64500;SDS011;50874;24.150;-110.320;2022-09-30T06:11:40;10.35;;;4.32;;
64500;SDS011;50874;24.150;-110.320;2022-09-30T06:14:07;10.48;;;4.13;;
64500;SDS011;50874;24.150;-110.320;2022-09-30T06:16:33;8.65;;;3.70;;
64500;SDS011;50874;24.150;-110.320;2022-09-30T06:19:00;6.22;;;4.18;;
64500;SDS011;50874;24.150;-110.320;2022-09-30T06:21:26;13.43;;;4.30;;
64500;SDS011;50874;24.150;-110.320;2022-09-30T06:23:53;12.07;;;4.25;;
64500;SDS011;50874;24.150;-110.320;2022-09-30T06:26:19;9.18;;;3.90;;
64500;SDS011;50874;24.150;-110.320;2022-09-30T06:28:46;11.60;;;4.38;;
64500;SDS011;50874;24.150;-110.320;2022-09-30T06:31:12;10.75;;;4.32;;
64500;SDS011;50874;24.150;-110.320;2022-09-30T06:33:39;5.10;;;3.42;;
64500;SDS011;50874;24.150;-110.320;2022-09-30T06:36:06;16.10;;;4.00;;
64500;SDS011;50874;24.150;-110.320;2022-09-30T06:38:33;13.18;;;4.55;;
64500;SDS011;50874;24.150;-110.320;2022-09-30T06:41:04;10.15;;;4.10;;
64500;SDS011;50874;24.150;-110.320;2022-09-30T06:43:31;9.05;;;5.18;;
64500;SDS011;50874;24.150;-110.320;2022-09-30T06:45:57;6.00;;;4.38;;
64500;SDS011;50874;24.150;-110.320;2022-09-30T06:48:25;7.15;;;4.22;;
64500;SDS011;50874;24.150;-110.320;2022-09-30T06:50:57;9.90;;;4.53;;
64500;SDS011;50874;24.150;-110.320;2022-09-30T06:53:24;9.98;;;4.07;;
64500;SDS011;50874;24.150;-110.320;2022-09-30T06:55:55;9.60;;;4.70;;
64500;SDS011;50874;24.150;-110.320;2022-09-30T06:58:22;9.90;;;4.20;;
64500;SDS011;50874;24.150;-110.320;2022-09-30T07:00:56;8.40;;;4.53;;
64500;SDS011;50874;24.150;-110.320;2022-09-30T07:03:28;10.30;;;4.65;;
64500;SDS011;50874;24.150;-110.320;2022-09-30T07:06:01;11.70;;;4.10;;
64500;SDS011;50874;24.150;-110.320;2022-09-30T07:08:29;7.60;;;3.90;;
64500;SDS011;50874;24.150;-110.320;2022-09-30T07:10:58;7.28;;;4.18;;
64500;SDS011;50874;24.150;-110.320;2022-09-30T07:13:25;11.50;;;3.90;;
64500;SDS011;50874;24.150;-110.320;2022-09-30T07:15:52;8.73;;;4.30;;
64500;SDS011;50874;24.150;-110.320;2022-09-30T07:18:21;8.25;;;3.67;;
64500;SDS011;50874;24.150;-110.320;2022-09-30T07:20:51;9.32;;;3.78;;
64500;SDS011;50874;24.150;-110.320;2022-09-30T07:23:19;11.40;;;4.03;;
64500;SDS011;50874;24.150;-110.320;2022-09-30T07:25:59;7.80;;;3.95;;
64500;SDS011;50874;24.150;-110.320;2022-09-30T07:28:31;8.98;;;4.53;;
64500;SDS011;50874;24.150;-110.320;2022-09-30T07:31:06;10.63;;;4.45;;
64500;SDS011;50874;24.150;-110.320;2022-09-30T07:33:36;7.95;;;3.72;;
64500;SDS011;50874;24.150;-110.320;2022-09-30T07:36:03;6.63;;;4.03;;
64500;SDS011;50874;24.150;-110.320;2022-09-30T07:38:33;7.43;;;4.30;;
64500;SDS011;50874;24.150;-110.320;2022-09-30T07:41:03;10.30;;;4.60;;
64500;SDS011;50874;24.150;-110.320;2022-09-30T07:43:32;7.10;;;3.80;;
64500;SDS011;50874;24.150;-110.320;2022-09-30T07:49:10;10.20;;;5.10;;
64500;SDS011;50874;24.150;-110.320;2022-09-30T07:51:40;10.23;;;4.60;;
64500;SDS011;50874;24.150;-110.320;2022-09-30T07:54:12;8.98;;;4.40;;
64500;SDS011;50874;24.150;-110.320;2022-09-30T07:56:40;9.82;;;4.72;;
64500;SDS011;50874;24.150;-110.320;2022-09-30T07:59:09;8.10;;;4.38;;
64500;SDS011;50874;24.150;-110.320;2022-09-30T08:01:37;10.00;;;4.60;;
64500;SDS011;50874;24.150;-110.320;2022-09-30T08:04:05;12.13;;;5.30;;
64500;SDS011;50874;24.150;-110.320;2022-09-30T08:06:35;5.18;;;3.90;;
64500;SDS011;50874;24.150;-110.320;2022-09-30T08:09:03;10.50;;;5.47;;
64500;SDS011;50874;24.150;-110.320;2022-09-30T08:11:34;14.13;;;5.05;;
64500;SDS011;50874;24.150;-110.320;2022-09-30T08:14:01;8.23;;;4.93;;
64500;SDS011;50874;24.150;-110.320;2022-09-30T08:16:28;8.13;;;4.18;;
64500;SDS011;50874;24.150;-110.320;2022-09-30T08:18:55;7.45;;;4.35;;
64500;SDS011;50874;24.150;-110.320;2022-09-30T08:21:23;7.82;;;4.47;;
64500;SDS011;50874;24.150;-110.320;2022-09-30T08:23:49;8.63;;;4.93;;
64500;SDS011;50874;24.150;-110.320;2022-09-30T08:26:16;14.35;;;4.18;;
64500;SDS011;50874;24.150;-110.320;2022-09-30T08:28:43;12.73;;;5.35;;
64500;SDS011;50874;24.150;-110.320;2022-09-30T08:33:41;10.70;;;4.65;;
64500;SDS011;50874;24.150;-110.320;2022-09-30T08:36:09;9.73;;;4.88;;
64500;SDS011;50874;24.150;-110.320;2022-09-30T08:38:55;10.48;;;4.22;;
64500;SDS011;50874;24.150;-110.320;2022-09-30T08:44:13;8.57;;;4.05;;
64500;SDS011;50874;24.150;-110.320;2022-09-30T08:47:14;11.82;;;5.03;;
64500;SDS011;50874;24.150;-110.320;2022-09-30T08:50:22;10.07;;;4.15;;
64500;SDS011;50874;24.150;-110.320;2022-09-30T08:53:16;9.18;;;4.55;;
64500;SDS011;50874;24.150;-110.320;2022-09-30T08:55:49;8.00;;;5.03;;
64500;SDS011;50874;24.150;-110.320;2022-09-30T08:58:27;9.82;;;4.40;;
64500;SDS011;50874;24.150;-110.320;2022-09-30T09:04:11;8.73;;;4.50;;
64500;SDS011;50874;24.150;-110.320;2022-09-30T09:06:51;7.10;;;4.28;;
64500;SDS011;50874;24.150;-110.320;2022-09-30T09:20:14;8.40;;;4.72;;
64500;SDS011;50874;24.150;-110.320;2022-09-30T09:22:44;12.80;;;4.78;;
64500;SDS011;50874;24.150;-110.320;2022-09-30T09:25:15;10.25;;;4.50;;
64500;SDS011;50874;24.150;-110.320;2022-09-30T09:27:57;6.90;;;5.13;;
64500;SDS011;50874;24.150;-110.320;2022-09-30T09:30:25;6.50;;;4.03;;
64500;SDS011;50874;24.150;-110.320;2022-09-30T09:32:55;7.90;;;4.80;;
64500;SDS011;50874;24.150;-110.320;2022-09-30T09:52:04;10.00;;;4.07;;
64500;SDS011;50874;24.150;-110.320;2022-09-30T09:54:39;7.55;;;4.07;;
64500;SDS011;50874;24.150;-110.320;2022-09-30T09:57:09;8.18;;;4.15;;
64500;SDS011;50874;24.150;-110.320;2022-09-30T10:00:01;9.52;;;4.30;;
64500;SDS011;50874;24.150;-110.320;2022-09-30T10:02:57;9.90;;;4.22;;
64500;SDS011;50874;24.150;-110.320;2022-09-30T10:05:25;9.63;;;4.70;;
64500;SDS011;50874;24.150;-110.320;2022-09-30T10:08:28;9.70;;;4.90;;
64500;SDS011;50874;24.150;-110.320;2022-09-30T10:11:21;10.07;;;5.20;;
64500;SDS011;50874;24.150;-110.320;2022-09-30T10:13:45;9.20;;;5.00;;
64500;SDS011;50874;24.150;-110.320;2022-09-30T10:16:25;6.72;;;4.82;;
64500;SDS011;50874;24.150;-110.320;2022-09-30T10:18:57;13.70;;;6.85;;
64500;SDS011;50874;24.150;-110.320;2022-09-30T10:21:25;8.25;;;4.47;;
64500;SDS011;50874;24.150;-110.320;2022-09-30T10:23:53;7.95;;;4.88;;
64500;SDS011;50874;24.150;-110.320;2022-09-30T10:26:20;8.40;;;5.20;;
64500;SDS011;50874;24.150;-110.320;2022-09-30T10:28:50;8.02;;;4.65;;
64500;SDS011;50874;24.150;-110.320;2022-09-30T10:34:02;9.68;;;5.18;;
64500;SDS011;50874;24.150;-110.320;2022-09-30T10:36:46;11.55;;;5.28;;
64500;SDS011;50874;24.150;-110.320;2022-09-30T10:44:40;12.43;;;5.10;;
64500;SDS011;50874;24.150;-110.320;2022-09-30T10:47:13;10.77;;;4.93;;
64500;SDS011;50874;24.150;-110.320;2022-09-30T10:52:29;7.60;;;4.35;;
64500;SDS011;50874;24.150;-110.320;2022-09-30T10:54:58;11.60;;;4.15;;
64500;SDS011;50874;24.150;-110.320;2022-09-30T10:57:34;11.95;;;4.53;;
64500;SDS011;50874;24.150;-110.320;2022-09-30T11:00:03;12.02;;;5.22;;
64500;SDS011;50874;24.150;-110.320;2022-09-30T11:02:56;9.05;;;5.55;;
64500;SDS011;50874;24.150;-110.320;2022-09-30T11:05:29;12.52;;;4.72;;
64500;SDS011;50874;24.150;-110.320;2022-09-30T11:07:58;7.22;;;4.13;;
64500;SDS011;50874;24.150;-110.320;2022-09-30T11:18:46;10.57;;;4.93;;
64500;SDS011;50874;24.150;-110.320;2022-09-30T11:21:34;9.10;;;4.65;;
64500;SDS011;50874;24.150;-110.320;2022-09-30T11:27:11;14.00;;;5.28;;
64500;SDS011;50874;24.150;-110.320;2022-09-30T11:32:33;7.65;;;4.93;;
64500;SDS011;50874;24.150;-110.320;2022-09-30T11:35:22;8.18;;;5.20;;
64500;SDS011;50874;24.150;-110.320;2022-09-30T11:54:33;11.93;;;5.07;;
64500;SDS011;50874;24.150;-110.320;2022-09-30T12:00:29;12.13;;;5.18;;
64500;SDS011;50874;24.150;-110.320;2022-09-30T12:03:00;15.80;;;5.63;;
64500;SDS011;50874;24.150;-110.320;2022-09-30T12:05:38;8.88;;;4.82;;
64500;SDS011;50874;24.150;-110.320;2022-09-30T12:10:45;12.82;;;5.25;;
64500;SDS011;50874;24.150;-110.320;2022-09-30T12:13:16;16.00;;;5.32;;
64500;SDS011;50874;24.150;-110.320;2022-09-30T12:15:53;10.80;;;5.55;;
64500;SDS011;50874;24.150;-110.320;2022-09-30T12:18:26;9.88;;;5.20;;
64500;SDS011;50874;24.150;-110.320;2022-09-30T12:23:26;11.95;;;6.03;;
64500;SDS011;50874;24.150;-110.320;2022-09-30T12:26:19;8.68;;;5.07;;
64500;SDS011;50874;24.150;-110.320;2022-09-30T12:28:56;10.45;;;6.55;;
64500;SDS011;50874;24.150;-110.320;2022-09-30T12:48:22;17.00;;;6.47;;
64500;SDS011;50874;24.150;-110.320;2022-09-30T12:50:54;23.70;;;6.60;;
64500;SDS011;50874;24.150;-110.320;2022-09-30T12:55:53;16.77;;;6.50;;
64500;SDS011;50874;24.150;-110.320;2022-09-30T12:58:30;18.70;;;5.68;;
64500;SDS011;50874;24.150;-110.320;2022-09-30T13:01:21;12.93;;;6.28;;
64500;SDS011;50874;24.150;-110.320;2022-09-30T13:06:26;11.32;;;6.00;;
64500;SDS011;50874;24.150;-110.320;2022-09-30T13:09:21;12.30;;;5.60;;
64500;SDS011;50874;24.150;-110.320;2022-09-30T13:19:36;16.25;;;5.45;;
64500;SDS011;50874;24.150;-110.320;2022-09-30T13:32:42;12.15;;;5.10;;
64500;SDS011;50874;24.150;-110.320;2022-09-30T13:40:40;10.27;;;4.90;;
64500;SDS011;50874;24.150;-110.320;2022-09-30T13:43:17;14.95;;;5.72;;
64500;SDS011;50874;24.150;-110.320;2022-09-30T13:45:45;8.45;;;4.55;;
64500;SDS011;50874;24.150;-110.320;2022-09-30T13:48:17;15.18;;;4.78;;
64500;SDS011;50874;24.150;-110.320;2022-09-30T13:51:03;10.05;;;5.78;;
64500;SDS011;50874;24.150;-110.320;2022-09-30T13:53:34;16.95;;;4.80;;
64500;SDS011;50874;24.150;-110.320;2022-09-30T13:56:12;17.58;;;5.20;;
64500;SDS011;50874;24.150;-110.320;2022-09-30T14:15:30;5.65;;;3.80;;
64500;SDS011;50874;24.150;-110.320;2022-09-30T14:32:49;13.68;;;4.03;;
64500;SDS011;50874;24.150;-110.320;2022-09-30T14:35:24;9.55;;;3.85;;
64500;SDS011;50874;24.150;-110.320;2022-09-30T14:40:27;11.87;;;4.80;;
64500;SDS011;50874;24.150;-110.320;2022-09-30T14:43:02;11.45;;;3.58;;
64500;SDS011;50874;24.150;-110.320;2022-09-30T14:45:40;8.88;;;4.15;;
64500;SDS011;50874;24.150;-110.320;2022-09-30T14:48:12;10.52;;;3.60;;
64500;SDS011;50874;24.150;-110.320;2022-09-30T14:51:03;13.70;;;3.50;;
64500;SDS011;50874;24.150;-110.320;2022-09-30T14:53:37;10.27;;;3.10;;
64500;SDS011;50874;24.150;-110.320;2022-09-30T14:56:18;6.82;;;2.92;;
64500;SDS011;50874;24.150;-110.320;2022-09-30T14:58:47;8.05;;;2.85;;
64500;SDS011;50874;24.150;-110.320;2022-09-30T15:01:18;9.63;;;3.15;;
64500;SDS011;50874;24.150;-110.320;2022-09-30T15:06:22;8.50;;;2.83;;
64500;SDS011;50874;24.150;-110.320;2022-09-30T15:08:59;8.25;;;2.80;;
64500;SDS011;50874;24.150;-110.320;2022-09-30T15:13:58;8.30;;;3.15;;
64500;SDS011;50874;24.150;-110.320;2022-09-30T15:16:31;4.65;;;2.55;;
64500;SDS011;50874;24.150;-110.320;2022-09-30T15:18:58;13.05;;;3.25;;
64500;SDS011;50874;24.150;-110.320;2022-09-30T15:21:26;4.95;;;2.72;;
64500;SDS011;50874;24.150;-110.320;2022-09-30T15:23:56;10.48;;;2.97;;
64500;SDS011;50874;24.150;-110.320;2022-09-30T15:26:25;8.68;;;3.17;;
64500;SDS011;50874;24.150;-110.320;2022-09-30T15:28:53;10.77;;;3.10;;
64500;SDS011;50874;24.150;-110.320;2022-09-30T15:36:58;11.20;;;3.03;;
64500;SDS011;50874;24.150;-110.320;2022-09-30T15:39:36;7.25;;;3.00;;
64500;SDS011;50874;24.150;-110.320;2022-09-30T15:42:29;10.77;;;3.25;;
64500;SDS011;50874;24.150;-110.320;2022-09-30T15:45:04;6.68;;;3.03;;
64500;SDS011;50874;24.150;-110.320;2022-09-30T15:47:52;10.80;;;2.65;;
64500;SDS011;50874;24.150;-110.320;2022-09-30T15:50:41;7.90;;;2.60;;
64500;SDS011;50874;24.150;-110.320;2022-09-30T15:53:19;9.27;;;3.08;;
64500;SDS011;50874;24.150;-110.320;2022-09-30T16:11:43;8.82;;;2.95;;
64500;SDS011;50874;24.150;-110.320;2022-09-30T16:14:21;4.70;;;2.53;;
64500;SDS011;50874;24.150;-110.320;2022-09-30T16:16:52;5.35;;;2.75;;
64500;SDS011;50874;24.150;-110.320;2022-09-30T16:19:20;5.63;;;2.25;;
64500;SDS011;50874;24.150;-110.320;2022-09-30T16:21:49;6.68;;;2.65;;
64500;SDS011;50874;24.150;-110.320;2022-09-30T16:26:56;4.65;;;2.00;;
64500;SDS011;50874;24.150;-110.320;2022-09-30T16:29:46;5.72;;;2.60;;
64500;SDS011;50874;24.150;-110.320;2022-09-30T16:32:12;5.82;;;2.50;;
64500;SDS011;50874;24.150;-110.320;2022-09-30T16:34:39;6.53;;;2.53;;
64500;SDS011;50874;24.150;-110.320;2022-09-30T16:37:09;7.55;;;2.53;;
64500;SDS011;50874;24.150;-110.320;2022-09-30T16:39:41;5.78;;;2.35;;
64500;SDS011;50874;24.150;-110.320;2022-09-30T16:42:11;6.18;;;2.05;;
64500;SDS011;50874;24.150;-110.320;2022-09-30T16:44:39;6.80;;;2.88;;
64500;SDS011;50874;24.150;-110.320;2022-09-30T16:47:12;11.40;;;2.38;;
64500;SDS011;50874;24.150;-110.320;2022-09-30T16:49:40;5.05;;;2.30;;
64500;SDS011;50874;24.150;-110.320;2022-09-30T16:52:10;4.70;;;2.22;;
64500;SDS011;50874;24.150;-110.320;2022-09-30T16:54:41;3.78;;;2.13;;
64500;SDS011;50874;24.150;-110.320;2022-09-30T16:57:10;6.90;;;2.38;;
64500;SDS011;50874;24.150;-110.320;2022-09-30T16:59:38;11.32;;;3.20;;
64500;SDS011;50874;24.150;-110.320;2022-09-30T17:02:05;6.68;;;2.47;;
64500;SDS011;50874;24.150;-110.320;2022-09-30T17:04:37;6.20;;;2.30;;
64500;SDS011;50874;24.150;-110.320;2022-09-30T17:07:03;4.63;;;2.40;;
64500;SDS011;50874;24.150;-110.320;2022-09-30T17:09:30;8.88;;;2.38;;
64500;SDS011;50874;24.150;-110.320;2022-09-30T17:11:56;3.17;;;2.15;;
64500;SDS011;50874;24.150;-110.320;2022-09-30T17:14:25;8.00;;;3.40;;
64500;SDS011;50874;24.150;-110.320;2022-09-30T17:16:52;7.25;;;2.40;;
64500;SDS011;50874;24.150;-110.320;2022-09-30T17:19:18;6.38;;;2.58;;
64500;SDS011;50874;24.150;-110.320;2022-09-30T17:21:45;7.15;;;2.13;;
64500;SDS011;50874;24.150;-110.320;2022-09-30T17:24:11;3.33;;;2.15;;
64500;SDS011;50874;24.150;-110.320;2022-09-30T17:26:38;7.82;;;2.45;;
64500;SDS011;50874;24.150;-110.320;2022-09-30T17:29:04;3.35;;;1.83;;
64500;SDS011;50874;24.150;-110.320;2022-09-30T17:31:31;8.07;;;2.55;;
64500;SDS011;50874;24.150;-110.320;2022-09-30T17:33:57;3.45;;;2.20;;
64500;SDS011;50874;24.150;-110.320;2022-09-30T17:36:24;4.63;;;2.40;;
64500;SDS011;50874;24.150;-110.320;2022-09-30T17:38:51;4.13;;;2.22;;
64500;SDS011;50874;24.150;-110.320;2022-09-30T17:41:19;8.50;;;2.10;;
64500;SDS011;50874;24.150;-110.320;2022-09-30T17:44:03;8.75;;;2.47;;
64500;SDS011;50874;24.150;-110.320;2022-09-30T17:46:38;5.47;;;2.55;;
64500;SDS011;50874;24.150;-110.320;2022-09-30T17:49:12;15.02;;;2.83;;
64500;SDS011;50874;24.150;-110.320;2022-09-30T17:51:41;6.35;;;2.78;;
64500;SDS011;50874;24.150;-110.320;2022-09-30T17:54:11;12.07;;;2.50;;
64500;SDS011;50874;24.150;-110.320;2022-09-30T17:56:38;9.48;;;2.83;;
64500;SDS011;50874;24.150;-110.320;2022-09-30T17:59:07;7.18;;;2.80;;
64500;SDS011;50874;24.150;-110.320;2022-09-30T18:01:33;6.80;;;2.83;;
64500;SDS011;50874;24.150;-110.320;2022-09-30T18:04:00;3.03;;;1.98;;
64500;SDS011;50874;24.150;-110.320;2022-09-30T18:06:27;3.25;;;2.00;;
64500;SDS011;50874;24.150;-110.320;2022-09-30T18:08:53;6.55;;;2.20;;
64500;SDS011;50874;24.150;-110.320;2022-09-30T18:11:23;5.57;;;2.33;;
64500;SDS011;50874;24.150;-110.320;2022-09-30T18:13:52;2.75;;;2.00;;
64500;SDS011;50874;24.150;-110.320;2022-09-30T18:16:27;8.90;;;2.65;;
64500;SDS011;50874;24.150;-110.320;2022-09-30T18:18:55;4.65;;;2.20;;
64500;SDS011;50874;24.150;-110.320;2022-09-30T18:21:23;3.67;;;2.40;;
64500;SDS011;50874;24.150;-110.320;2022-09-30T18:23:50;4.40;;;2.47;;
64500;SDS011;50874;24.150;-110.320;2022-09-30T18:26:18;5.30;;;2.47;;
64500;SDS011;50874;24.150;-110.320;2022-09-30T18:28:45;7.55;;;2.60;;
64500;SDS011;50874;24.150;-110.320;2022-09-30T18:31:15;4.47;;;2.03;;
64500;SDS011;50874;24.150;-110.320;2022-09-30T18:33:53;6.68;;;2.05;;
64500;SDS011;50874;24.150;-110.320;2022-09-30T18:36:20;14.63;;;3.20;;
64500;SDS011;50874;24.150;-110.320;2022-09-30T18:38:47;9.85;;;2.60;;
64500;SDS011;50874;24.150;-110.320;2022-09-30T18:41:13;10.60;;;2.90;;
64500;SDS011;50874;24.150;-110.320;2022-09-30T18:43:40;7.03;;;2.38;;
64500;SDS011;50874;24.150;-110.320;2022-09-30T18:46:09;7.28;;;2.33;;
64500;SDS011;50874;24.150;-110.320;2022-09-30T18:48:38;3.22;;;2.00;;
64500;SDS011;50874;24.150;-110.320;2022-09-30T18:51:05;4.18;;;1.88;;
64500;SDS011;50874;24.150;-110.320;2022-09-30T18:53:33;9.68;;;2.03;;